CheckWX is a tool to help pilots better visualize weather data.  It is not intended as a substitute for an official pre-flight weather briefing.

01:19:59 UTC

ORMM METAR
Basrah International Airport
Basrah, Iraq
Current

20 mins ago

ORMM 280100Z 28006KT CAVOK 28/13 Q1006 NOSIG
Observed
May-28 @ 01:00 UTC
Wind
  • 280° at 6 KTS
Visibility
10,000+ meters
Flight Rules
VFR
Cloud Levels
  • Clear skies
Temperature
28°C / 82°F
Dewpoint
13°C / 55°F
Humidity
40%
Altimeter
29.7" Hg
Pressure
1005.92 hPa
Previous

9 hours ago

ORMM 271600Z 29008KT CAVOK 39/11 Q1007 NOSIG
Observed
May-27 @ 16:00 UTC
Wind
  • 290° at 8 KTS
Visibility
10,000+ meters
Flight Rules
VFR
Cloud Levels
  • Clear skies
Temperature
39°C / 102°F
Dewpoint
11°C / 52°F
Humidity
18%
Altimeter
29.73" Hg
Pressure
1006.92 hPa
Previous

10 hours ago

ORMM 271500Z 29014KT CAVOK 40/07 Q1007 NOSIG
Observed
May-27 @ 15:00 UTC
Wind
  • 290° at 14 KTS
Visibility
10,000+ meters
Flight Rules
VFR
Cloud Levels
  • Clear skies
Temperature
40°C / 104°F
Dewpoint
C / 45°F
Humidity
13%
Altimeter
29.73" Hg
Pressure
1006.92 hPa